Time;durP1;ratioP1;P1;durP2;ratioP2;P2;SDS_P1;SDS_P2;PMS_P1;PMS_P2;Temp;Humidity;BMP_temperature;BMP_pressure;BME280_temperature;BME280_humidity;BME280_pressure;Samples;Min_cycle;Max_cycle;Signal;HPM_P1;HPM_P2
2022/12/03 00:00:30;;;;;;;0.50;0.50;;;4.50;99.90;;;;;;5025700;28;20044;-82
2022/12/03 00:02:56;;;;;;;;;;;3.40;99.90;;;;;;5031249;28;20054;-82
2022/12/03 00:05:22;;;;;;;0.57;0.57;;;3.40;99.90;;;;;;5012553;28;19928;-84
2022/12/03 00:07:49;;;;;;;0.65;0.65;;;3.50;99.90;;;;;;5015057;28;20144;-83
2022/12/03 00:10:15;;;;;;;0.57;0.57;;;3.50;99.90;;;;;;5009749;28;20566;-83
2022/12/03 00:12:40;;;;;;;0.50;0.50;;;3.50;99.90;;;;;;5006222;28;20453;-83
2022/12/03 00:15:08;;;;;;;0.70;0.70;;;3.60;99.90;;;;;;5029366;28;20033;-83
2022/12/03 00:17:33;;;;;;;0.60;0.60;;;3.50;99.90;;;;;;4992593;28;20042;-84
2022/12/03 00:20:01;;;;;;;0.60;0.60;;;3.50;99.90;;;;;;5009024;28;20045;-83
2022/12/03 00:22:26;;;;;;;0.55;0.55;;;3.80;99.90;;;;;;5016117;28;20104;-84
2022/12/03 00:24:52;;;;;;;0.50;0.50;;;4.70;99.90;;;;;;5013145;28;20049;-84
2022/12/03 00:27:18;;;;;;;0.63;0.63;;;3.60;99.90;;;;;;5030501;28;20061;-84
2022/12/03 00:29:44;;;;;;;0.60;0.60;;;3.60;99.90;;;;;;5016723;28;20056;-82
2022/12/03 00:32:10;;;;;;;0.70;0.70;;;4.00;99.90;;;;;;5016516;28;20053;-84
2022/12/03 00:34:35;;;;;;;0.70;0.70;;;3.60;99.90;;;;;;4983192;28;20049;-84
2022/12/03 00:37:01;;;;;;;0.65;0.65;;;3.90;99.90;;;;;;5014877;28;20048;-84
2022/12/03 00:39:28;;;;;;;0.55;0.55;;;3.70;99.90;;;;;;5031340;28;20042;-85
2022/12/03 00:41:57;;;;;;;0.60;0.60;;;3.60;99.90;;;;;;5031796;28;20095;-84
2022/12/03 00:44:23;;;;;;;0.60;0.60;;;3.80;99.90;;;;;;5019017;28;20124;-84
2022/12/03 00:46:50;;;;;;;0.60;0.60;;;3.70;99.90;;;;;;5003202;28;20048;-83
2022/12/03 00:49:15;;;;;;;0.90;0.90;;;3.70;99.90;;;;;;5011513;28;20068;-84
2022/12/03 00:51:41;;;;;;;0.70;0.70;;;3.80;99.90;;;;;;5015794;28;20553;-84
2022/12/03 00:54:07;;;;;;;0.73;0.73;;;4.60;99.90;;;;;;5020416;28;20137;-82
2022/12/03 00:56:32;;;;;;;0.60;0.60;;;3.80;99.90;;;;;;4997451;28;20045;-83
2022/12/03 00:58:58;;;;;;;1.08;1.08;;;3.80;99.90;;;;;;5006053;28;20544;-83
2022/12/03 01:01:24;;;;;;;0.52;0.52;;;3.80;99.90;;;;;;4983674;28;20053;-84
2022/12/03 01:03:50;;;;;;;;;;;3.80;99.90;;;;;;5001897;28;20048;-82
2022/12/03 01:06:16;;;;;;;0.50;0.50;;;3.90;99.90;;;;;;5012740;28;19917;-85
2022/12/03 01:08:42;;;;;;;0.63;0.63;;;3.90;99.90;;;;;;5004013;28;20056;-84
2022/12/03 01:11:36;;;;;;;0.60;0.60;;;3.90;99.90;;;;;;5025827;28;20479;-85
2022/12/03 01:13:57;;;;;;;0.50;0.50;;;3.90;99.90;;;;;;5022887;28;20569;-85
2022/12/03 01:16:23;;;;;;;1.63;0.75;;;3.90;99.90;;;;;;5002788;28;20116;-85
2022/12/03 01:18:51;;;;;;;0.57;0.57;;;3.90;99.90;;;;;;4988552;28;20029;-82
2022/12/03 01:21:17;;;;;;;0.70;0.70;;;3.90;99.90;;;;;;5002771;28;20087;-82
2022/12/03 01:23:43;;;;;;;0.60;0.60;;;4.70;99.90;;;;;;5017307;28;20042;-84
2022/12/03 01:26:08;;;;;;;0.70;0.70;;;3.90;99.90;;;;;;5023567;28;20051;-84
2022/12/03 01:28:34;;;;;;;0.52;0.52;;;4.70;99.90;;;;;;4994765;28;20053;-84
2022/12/03 01:33:51;;;;;;;0.60;0.60;;;4.70;99.90;;;;;;5021003;28;20046;-84
2022/12/03 01:36:16;;;;;;;0.57;0.57;;;3.80;99.90;;;;;;5015102;28;20116;-84
2022/12/03 01:38:42;;;;;;;0.60;0.60;;;3.80;99.90;;;;;;5006085;28;20041;-83
2022/12/03 01:41:08;;;;;;;0.60;0.60;;;3.90;99.90;;;;;;5019387;28;20131;-85
2022/12/03 01:43:35;;;;;;;1.50;1.40;;;3.90;99.90;;;;;;5017133;28;20048;-82
2022/12/03 01:46:01;;;;;;;0.60;0.60;;;3.90;99.90;;;;;;4994140;28;20061;-84
2022/12/03 01:48:31;;;;;;;0.60;0.60;;;3.90;99.90;;;;;;5011294;28;20071;-83
2022/12/03 01:50:57;;;;;;;0.57;0.57;;;3.90;99.90;;;;;;5011292;28;20045;-84
2022/12/03 01:53:23;;;;;;;0.60;0.60;;;3.90;99.90;;;;;;5007936;28;20052;-85
2022/12/03 01:55:49;;;;;;;0.65;0.65;;;4.90;99.90;;;;;;4977480;28;20050;-83
2022/12/03 01:58:17;;;;;;;0.63;0.63;;;3.90;99.90;;;;;;4993777;28;20083;-85
2022/12/03 02:00:43;;;;;;;0.70;0.70;;;3.80;99.90;;;;;;5017956;28;20069;-84
2022/12/03 02:03:20;;;;;;;0.60;0.60;;;3.80;99.90;;;;;;5027615;28;20096;-83
2022/12/03 02:05:45;;;;;;;0.60;0.60;;;3.80;99.90;;;;;;5004613;28;20038;-83
2022/12/03 02:08:29;;;;;;;1.58;1.48;;;4.10;99.90;;;;;;4996486;28;20095;-84
2022/12/03 02:10:57;;;;;;;0.65;0.65;;;3.80;99.90;;;;;;5000896;28;20087;-85
2022/12/03 02:13:23;;;;;;;0.68;0.68;;;3.80;99.90;;;;;;5016044;28;20453;-85
2022/12/03 02:15:49;;;;;;;0.60;0.60;;;4.60;99.90;;;;;;5027522;28;20490;-84
2022/12/03 02:18:15;;;;;;;0.60;0.60;;;3.80;99.90;;;;;;5011353;28;20041;-84
2022/12/03 02:21:01;;;;;;;0.60;0.60;;;3.80;99.90;;;;;;5013728;28;20037;-84
2022/12/03 02:23:37;;;;;;;0.60;0.60;;;3.80;99.90;;;;;;4991167;28;20510;-84
2022/12/03 02:26:02;;;;;;;0.60;0.60;;;3.80;99.90;;;;;;5013452;28;20053;-84
2022/12/03 02:28:28;;;;;;;0.60;0.60;;;3.80;99.90;;;;;;4997670;28;20156;-85
2022/12/03 02:30:54;;;;;;;;;;;3.60;99.90;;;;;;5004896;28;20053;-85
2022/12/03 02:33:23;;;;;;;0.70;0.70;;;4.00;99.90;;;;;;5025892;28;19921;-85
2022/12/03 02:35:49;;;;;;;0.70;0.70;;;3.70;99.90;;;;;;5013606;28;20099;-84
2022/12/03 02:38:24;;;;;;;0.70;0.70;;;3.70;99.90;;;;;;4997835;28;20037;-83
2022/12/03 02:40:55;;;;;;;0.60;0.60;;;4.20;99.90;;;;;;5014175;28;20068;-84
2022/12/03 02:43:21;;;;;;;0.60;0.60;;;3.90;99.90;;;;;;5028469;28;20850;-85
2022/12/03 02:45:54;;;;;;;0.50;0.50;;;3.60;99.90;;;;;;5016232;28;20034;-84
2022/12/03 02:48:30;;;;;;;0.70;0.70;;;3.60;99.90;;;;;;4998314;28;20075;-85
2022/12/03 02:51:04;;;;;;;0.50;0.50;;;3.60;99.90;;;;;;5030381;28;20043;-83
2022/12/03 02:53:37;;;;;;;0.90;0.90;;;3.50;99.90;;;;;;5029132;28;20300;-86
2022/12/03 02:56:04;;;;;;;0.60;0.60;;;3.50;99.90;;;;;;4996894;28;20049;-84
2022/12/03 02:58:32;;;;;;;0.65;0.65;;;3.50;99.90;;;;;;5011255;28;20049;-85
2022/12/03 03:01:00;;;;;;;0.60;0.60;;;3.40;99.90;;;;;;5010305;28;20112;-85
2022/12/03 03:03:28;;;;;;;0.70;0.70;;;3.30;99.90;;;;;;5014627;28;20534;-85
2022/12/03 03:05:55;;;;;;;0.63;0.63;;;3.30;99.90;;;;;;5012338;28;20037;-85
2022/12/03 03:08:23;;;;;;;0.60;0.60;;;3.30;99.90;;;;;;5017460;28;20056;-83
2022/12/03 03:10:50;;;;;;;0.60;0.60;;;3.20;99.90;;;;;;5015359;28;20054;-83
2022/12/03 03:13:18;;;;;;;0.63;0.63;;;3.20;99.90;;;;;;5017253;28;20076;-83
2022/12/03 03:15:44;;;;;;;0.60;0.60;;;3.20;99.90;;;;;;5030414;28;20037;-84
2022/12/03 03:18:13;;;;;;;0.50;0.50;;;3.20;99.90;;;;;;4976148;28;20045;-82
2022/12/03 03:20:40;;;;;;;0.70;0.70;;;3.20;99.90;;;;;;5012316;28;20045;-82
2022/12/03 03:23:23;;;;;;;0.60;0.60;;;3.20;99.90;;;;;;4975203;28;20106;-83
2022/12/03 03:26:11;;;;;;;0.60;0.60;;;3.20;99.90;;;;;;5014710;28;20092;-83
2022/12/03 03:28:41;;;;;;;0.60;0.60;;;3.20;99.90;;;;;;5032132;28;20050;-83
2022/12/03 03:31:09;;;;;;;0.70;0.70;;;3.90;99.90;;;;;;5030240;28;20056;-83
2022/12/03 03:33:40;;;;;;;0.60;0.60;;;4.00;99.90;;;;;;5029560;28;20053;-83
2022/12/03 03:36:06;;;;;;;0.50;0.50;;;3.20;99.90;;;;;;5000201;28;20125;-83
2022/12/03 03:38:33;;;;;;;0.60;0.60;;;3.20;99.90;;;;;;4977836;28;20050;-84
2022/12/03 03:41:02;;;;;;;0.52;0.52;;;3.20;99.90;;;;;;5012406;28;20502;-84
2022/12/03 03:43:29;;;;;;;0.60;0.60;;;3.20;99.90;;;;;;5014307;28;20037;-84
2022/12/03 03:45:55;;;;;;;0.50;0.50;;;3.20;99.90;;;;;;5019865;28;20043;-85
2022/12/03 03:48:22;;;;;;;0.60;0.60;;;3.70;99.90;;;;;;5002863;28;20049;-83
2022/12/03 03:50:48;;;;;;;;;;;3.20;99.90;;;;;;5019674;28;20490;-82
2022/12/03 03:53:15;;;;;;;0.65;0.65;;;3.20;99.90;;;;;;5015655;28;20023;-81
2022/12/03 03:55:41;;;;;;;0.57;0.57;;;3.20;99.90;;;;;;5031249;28;20046;-84
2022/12/03 03:58:07;;;;;;;0.60;0.60;;;3.70;99.90;;;;;;5030323;28;21439;-85
2022/12/03 04:00:34;;;;;;;0.60;0.60;;;3.20;99.90;;;;;;5000198;28;20065;-83
2022/12/03 04:03:01;;;;;;;0.60;0.60;;;3.30;99.90;;;;;;4998844;28;20041;-85
2022/12/03 04:05:28;;;;;;;0.60;0.60;;;3.20;99.90;;;;;;5001020;28;20905;-84
2022/12/03 04:07:54;;;;;;;0.60;0.60;;;3.20;99.90;;;;;;4992512;28;20041;-85
2022/12/03 04:13:04;;;;;;;0.70;0.70;;;3.20;99.90;;;;;;5011762;28;21902;-82
2022/12/03 04:15:30;;;;;;;;;;;4.00;99.90;;;;;;5010326;28;20518;-84
2022/12/03 04:20:40;;;;;;;0.60;0.60;;;3.20;99.90;;;;;;5016178;28;20132;-85
2022/12/03 04:23:06;;;;;;;0.60;0.60;;;3.20;99.90;;;;;;5020718;28;20112;-85
2022/12/03 04:35:41;;;;;;;1.33;1.33;;;3.10;99.90;;;;;;5018668;28;20068;-83
2022/12/03 04:36:31;;;;;;;1.42;0.88;;;4.00;99.90;;;;;;5020818;28;20041;-83
2022/12/03 04:38:57;;;;;;;0.68;0.68;;;3.10;99.90;;;;;;5028141;28;20127;-83
2022/12/03 04:41:23;;;;;;;0.68;0.68;;;3.00;99.90;;;;;;5002329;28;20041;-83
2022/12/03 04:46:36;;;;;;;0.60;0.60;;;3.00;99.90;;;;;;5016974;28;20041;-83
2022/12/03 04:49:02;;;;;;;;;;;3.70;99.90;;;;;;5030071;28;20084;-83
2022/12/03 04:51:28;;;;;;;0.50;0.50;;;3.40;99.90;;;;;;5014448;28;19960;-85
2022/12/03 04:53:53;;;;;;;0.60;0.60;;;3.00;99.90;;;;;;5019459;28;20125;-84
2022/12/03 04:56:19;;;;;;;0.75;0.75;;;3.00;99.90;;;;;;5018152;28;20042;-84
2022/12/03 04:58:45;;;;;;;0.60;0.60;;;3.00;99.90;;;;;;4999253;28;20060;-83
2022/12/03 05:01:10;;;;;;;0.60;0.60;;;3.10;99.90;;;;;;5015086;28;20033;-82
2022/12/03 05:03:36;;;;;;;0.60;0.60;;;2.90;99.90;;;;;;4999555;28;20061;-83
2022/12/03 05:06:02;;;;;;;0.90;0.90;;;3.00;99.90;;;;;;5014425;28;20044;-83
2022/12/03 05:08:28;;;;;;;;;;;2.90;99.90;;;;;;4982739;28;20046;-84
2022/12/03 05:10:54;;;;;;;0.60;0.60;;;2.90;99.90;;;;;;5015757;28;19970;-84
2022/12/03 05:13:19;;;;;;;0.70;0.70;;;2.90;99.90;;;;;;5031513;28;20065;-84
2022/12/03 05:15:45;;;;;;;0.50;0.50;;;2.90;99.90;;;;;;5032827;28;20061;-83
2022/12/03 05:18:10;;;;;;;0.70;0.70;;;2.90;99.90;;;;;;5033206;28;20048;-84
2022/12/03 05:20:42;;;;;;;0.60;0.60;;;3.40;99.90;;;;;;5023338;28;20037;-81
2022/12/03 05:23:09;;;;;;;1.30;1.30;;;2.90;99.90;;;;;;5023864;28;20483;-84
2022/12/03 05:25:35;;;;;;;0.60;0.60;;;3.40;99.90;;;;;;5018894;28;20132;-83
2022/12/03 05:28:02;;;;;;;0.57;0.57;;;2.90;99.90;;;;;;5018529;28;20129;-83
2022/12/03 05:30:28;;;;;;;0.70;0.70;;;2.80;99.90;;;;;;5015810;28;20037;-84
2022/12/03 05:32:53;;;;;;;0.52;0.52;;;2.80;99.90;;;;;;5015219;28;20060;-86
2022/12/03 05:35:19;;;;;;;0.60;0.60;;;2.80;99.90;;;;;;5029246;28;20133;-85
2022/12/03 05:37:45;;;;;;;0.60;0.60;;;2.80;99.90;;;;;;5026723;28;20099;-84
2022/12/03 05:40:13;;;;;;;0.60;0.60;;;2.80;99.90;;;;;;5013112;28;20049;-85
2022/12/03 05:42:55;;;;;;;1.45;1.45;;;2.80;99.90;;;;;;4996697;28;20084;-85
2022/12/03 05:45:31;;;;;;;0.70;0.70;;;3.90;99.90;;;;;;5029333;28;20041;-83
2022/12/03 05:47:58;;;;;;;0.88;0.88;;;2.80;99.90;;;;;;5013304;28;20029;-83
2022/12/03 05:50:26;;;;;;;0.60;0.60;;;2.80;99.90;;;;;;4997456;28;20065;-83
2022/12/03 05:52:52;;;;;;;0.60;0.60;;;2.80;99.90;;;;;;5017275;28;20037;-84
2022/12/03 05:55:18;;;;;;;0.65;0.65;;;2.80;99.90;;;;;;5032180;28;20295;-84
2022/12/03 05:57:45;;;;;;;0.63;0.63;;;2.80;99.90;;;;;;5016410;28;20033;-84
2022/12/03 06:00:18;;;;;;;0.70;0.70;;;2.80;99.90;;;;;;5031976;28;20065;-83
2022/12/03 06:02:44;;;;;;;0.60;0.60;;;2.90;99.90;;;;;;5012170;28;20124;-84
2022/12/03 06:05:11;;;;;;;0.70;0.70;;;2.90;99.90;;;;;;5012886;28;20140;-83
2022/12/03 06:07:37;;;;;;;0.70;0.70;;;2.90;99.90;;;;;;5028227;28;20069;-84
2022/12/03 06:10:08;;;;;;;15.02;2.05;;;2.90;99.90;;;;;;5011147;28;20454;-84
2022/12/03 06:12:34;;;;;;;0.50;0.50;;;2.90;99.90;;;;;;5028356;28;20058;-84
2022/12/03 06:15:00;;;;;;;0.60;0.60;;;2.90;99.90;;;;;;5014005;28;20053;-82
2022/12/03 06:17:25;;;;;;;0.70;0.70;;;2.90;99.90;;;;;;5008708;28;20148;-84
2022/12/03 06:19:51;;;;;;;0.70;0.70;;;2.90;99.90;;;;;;5008410;28;20045;-85
2022/12/03 06:22:18;;;;;;;0.60;0.60;;;2.90;99.90;;;;;;4991729;28;20037;-85
2022/12/03 06:24:43;;;;;;;0.70;0.70;;;2.90;99.90;;;;;;5013404;28;20084;-83
2022/12/03 06:27:10;;;;;;;0.65;0.65;;;2.90;99.90;;;;;;5013633;28;20111;-85
2022/12/03 06:29:35;;;;;;;6.32;3.83;;;3.70;99.90;;;;;;5015218;28;21582;-83
2022/12/03 06:32:07;;;;;;;0.70;0.70;;;2.90;99.90;;;;;;4994270;28;20111;-85
2022/12/03 06:34:33;;;;;;;0.60;0.60;;;2.80;99.90;;;;;;4978990;28;20775;-84
2022/12/03 06:36:59;;;;;;;;;;;2.80;99.90;;;;;;4987615;28;20045;-84
2022/12/03 06:39:24;;;;;;;0.60;0.60;;;2.80;99.90;;;;;;5030076;28;19940;-84
2022/12/03 06:41:50;;;;;;;0.60;0.60;;;2.80;99.90;;;;;;5010563;28;20967;-84
2022/12/03 06:44:17;;;;;;;0.98;0.98;;;2.80;99.90;;;;;;4981413;28;20037;-84
2022/12/03 06:46:43;;;;;;;0.50;0.50;;;2.80;99.90;;;;;;4995840;28;20068;-83
2022/12/03 06:49:09;;;;;;;0.50;0.50;;;2.70;99.90;;;;;;5029429;28;20049;-85
2022/12/03 06:51:35;;;;;;;0.60;0.60;;;2.70;99.90;;;;;;5012968;28;20128;-84
2022/12/03 06:54:05;;;;;;;0.63;0.63;;;2.60;99.90;;;;;;5026691;28;20734;-84
2022/12/03 06:56:36;;;;;;;0.70;0.70;;;2.60;99.90;;;;;;4992490;28;20559;-84
2022/12/03 06:59:02;;;;;;;1.23;1.13;;;2.60;99.90;;;;;;4983991;28;20171;-83
2022/12/03 07:01:28;;;;;;;0.60;0.60;;;2.60;99.90;;;;;;5011504;28;20380;-86
2022/12/03 07:03:53;;;;;;;0.70;0.70;;;2.60;99.90;;;;;;5010150;28;20053;-85
2022/12/03 07:06:19;;;;;;;0.57;0.57;;;2.80;99.90;;;;;;4995951;28;20057;-85
2022/12/03 07:08:45;;;;;;;0.65;0.65;;;2.50;99.90;;;;;;5015302;28;20464;-85
2022/12/03 07:13:55;;;;;;;0.60;0.60;;;2.50;99.90;;;;;;5029962;28;20072;-85
2022/12/03 07:16:23;;;;;;;0.55;0.55;;;2.50;99.90;;;;;;5030594;28;20038;-85
2022/12/03 07:18:49;;;;;;;0.52;0.52;;;2.50;99.90;;;;;;4996864;28;20099;-85
2022/12/03 07:21:15;;;;;;;0.60;0.60;;;2.50;99.90;;;;;;4992306;28;20046;-84
2022/12/03 07:23:41;;;;;;;0.70;0.70;;;2.50;99.90;;;;;;5028338;28;20057;-85
2022/12/03 07:26:06;;;;;;;0.60;0.60;;;2.50;99.90;;;;;;5028593;28;20045;-83
2022/12/03 07:28:32;;;;;;;0.70;0.70;;;2.50;99.90;;;;;;5024662;28;20053;-83
2022/12/03 07:30:58;;;;;;;0.65;0.65;;;2.50;99.90;;;;;;4991513;28;20060;-86
2022/12/03 07:33:24;;;;;;;0.63;0.63;;;2.50;99.90;;;;;;4996710;28;20037;-83
2022/12/03 07:35:49;;;;;;;0.70;0.70;;;2.50;99.90;;;;;;4994820;28;20125;-85
2022/12/03 07:38:15;;;;;;;0.90;0.90;;;2.60;99.90;;;;;;4991727;28;20044;-85
2022/12/03 07:40:40;;;;;;;0.68;0.68;;;2.50;99.90;;;;;;4977806;28;20152;-87
2022/12/03 07:43:06;;;;;;;0.70;0.70;;;2.50;99.90;;;;;;4981673;28;20072;-83
2022/12/03 07:45:32;;;;;;;0.70;0.70;;;2.50;99.90;;;;;;5012813;28;20052;-83
2022/12/03 07:47:57;;;;;;;0.70;0.70;;;2.50;99.90;;;;;;4996703;28;20511;-86
2022/12/03 07:50:27;;;;;;;0.80;0.80;;;2.50;99.90;;;;;;5017275;28;20052;-83
2022/12/03 07:52:53;;;;;;;0.60;0.60;;;2.50;99.90;;;;;;5014055;28;20187;-86
2022/12/03 07:55:18;;;;;;;;;;;2.40;99.90;;;;;;4997324;28;20053;-86
2022/12/03 07:57:44;;;;;;;0.70;0.70;;;3.90;99.90;;;;;;5001417;28;19917;-86
2022/12/03 08:00:11;;;;;;;0.50;0.50;;;2.50;99.90;;;;;;5012967;28;20083;-84
2022/12/03 08:02:36;;;;;;;0.70;0.70;;;2.50;99.90;;;;;;5014833;28;20192;-84
2022/12/03 08:05:04;;;;;;;1.20;1.20;;;2.50;99.90;;;;;;5002044;28;21755;-84
2022/12/03 08:07:29;;;;;;;0.80;0.80;;;2.40;99.90;;;;;;5026339;28;20180;-84
2022/12/03 08:09:55;;;;;;;0.70;0.70;;;2.80;99.90;;;;;;5013524;28;20104;-84
2022/12/03 08:12:38;;;;;;;0.57;0.57;;;2.50;99.90;;;;;;5023620;28;20037;-83
2022/12/03 08:15:13;;;;;;;0.60;0.60;;;2.50;99.90;;;;;;4995993;28;20042;-84
2022/12/03 08:17:41;;;;;;;0.60;0.60;;;2.60;99.90;;;;;;5012572;28;20064;-88
2022/12/03 08:20:21;;;;;;;0.70;0.70;;;2.40;99.90;;;;;;5024832;28;20597;-84
2022/12/03 08:22:49;;;;;;;0.93;0.93;;;2.40;99.90;;;;;;5025128;28;20045;-85
2022/12/03 08:25:27;;;;;;;0.50;0.50;;;2.40;99.90;;;;;;4977353;28;20076;-82
2022/12/03 08:28:01;;;;;;;0.55;0.55;;;2.40;99.90;;;;;;5007478;28;20099;-84
2022/12/03 08:30:27;;;;;;;0.60;0.60;;;3.20;99.90;;;;;;5012304;28;20049;-83
2022/12/03 08:32:53;;;;;;;0.70;0.70;;;3.70;99.90;;;;;;5020506;28;20056;-83
2022/12/03 08:35:27;;;;;;;0.57;0.57;;;2.40;99.90;;;;;;4987205;28;20041;-83
2022/12/03 08:38:08;;;;;;;0.70;0.70;;;2.40;99.90;;;;;;5023306;28;20045;-84
2022/12/03 08:40:36;;;;;;;0.70;0.70;;;2.40;99.90;;;;;;5008309;28;20112;-83
2022/12/03 08:43:27;;;;;;;0.43;0.43;;;2.40;99.90;;;;;;5011496;28;20033;-84
2022/12/03 08:45:56;;;;;;;0.60;0.60;;;2.40;99.90;;;;;;4999877;28;20048;-84
2022/12/03 08:48:32;;;;;;;0.70;0.70;;;2.40;99.90;;;;;;4998209;28;20029;-83
2022/12/03 08:51:26;;;;;;;2.17;2.08;;;2.40;99.90;;;;;;5031193;28;20044;-83
2022/12/03 08:54:17;;;;;;;0.60;0.60;;;2.40;99.90;;;;;;5031462;28;20998;-83
2022/12/03 08:56:43;;;;;;;0.60;0.60;;;2.40;99.90;;;;;;4997214;28;20041;-82
2022/12/03 08:59:31;;;;;;;0.50;0.50;;;2.40;99.90;;;;;;5025084;28;20375;-84
2022/12/03 09:01:58;;;;;;;0.68;0.68;;;2.40;99.90;;;;;;5014080;28;20037;-82
2022/12/03 09:04:37;;;;;;;0.50;0.50;;;2.50;99.90;;;;;;5009931;28;20180;-83
2022/12/03 09:07:05;;;;;;;0.80;0.80;;;2.50;99.90;;;;;;5016658;28;20042;-82
2022/12/03 09:09:31;;;;;;;0.60;0.60;;;2.50;99.90;;;;;;5004332;28;20045;-83
2022/12/03 09:11:57;;;;;;;0.70;0.70;;;2.50;99.90;;;;;;5035185;28;20526;-85
2022/12/03 09:14:22;;;;;;;1.08;1.08;;;2.40;99.90;;;;;;4983960;28;20102;-83
2022/12/03 09:16:50;;;;;;;0.75;0.75;;;2.40;99.90;;;;;;5018714;28;20037;-78
2022/12/03 09:19:16;;;;;;;0.70;0.70;;;2.60;99.90;;;;;;5038536;28;20112;-83
2022/12/03 09:21:42;;;;;;;0.60;0.60;;;2.50;99.90;;;;;;5020796;28;20045;-82
2022/12/03 09:24:10;;;;;;;0.60;0.60;;;2.40;99.90;;;;;;4997467;28;20076;-84
2022/12/03 09:26:36;;;;;;;0.73;0.73;;;2.50;99.90;;;;;;5013561;28;20052;-84
2022/12/03 09:29:02;;;;;;;0.70;0.70;;;2.40;99.90;;;;;;5016338;28;20427;-82
2022/12/03 09:31:28;;;;;;;0.77;0.77;;;2.40;99.90;;;;;;5016986;28;20041;-84
2022/12/03 09:33:55;;;;;;;0.70;0.70;;;2.40;99.90;;;;;;5002221;28;20052;-84
2022/12/03 09:36:21;;;;;;;0.70;0.70;;;2.40;99.90;;;;;;4997865;28;20126;-83
2022/12/03 09:38:50;;;;;;;0.70;0.70;;;3.10;99.90;;;;;;5014990;28;20060;-84
2022/12/03 09:41:16;;;;;;;0.70;0.70;;;2.50;99.90;;;;;;5021511;28;20395;-83
2022/12/03 09:43:42;;;;;;;0.60;0.60;;;2.50;99.90;;;;;;5000827;28;20041;-83
2022/12/03 09:46:08;;;;;;;0.52;0.52;;;2.50;99.90;;;;;;4984792;28;20406;-83
2022/12/03 09:48:34;;;;;;;0.52;0.52;;;2.50;99.90;;;;;;5016705;28;20120;-82
2022/12/03 09:51:01;;;;;;;0.57;0.57;;;2.60;99.90;;;;;;4999345;28;20045;-85
2022/12/03 09:53:29;;;;;;;0.60;0.60;;;2.60;99.90;;;;;;5037077;28;20049;-82
2022/12/03 09:55:59;;;;;;;1.65;1.65;;;2.60;99.90;;;;;;5014130;28;20092;-83
2022/12/03 09:58:26;;;;;;;0.63;0.63;;;2.60;99.90;;;;;;5039168;28;20056;-81
2022/12/03 10:00:56;;;;;;;1.05;1.05;;;2.70;99.90;;;;;;5037469;28;20054;-82
2022/12/03 10:03:22;;;;;;;;;;;2.70;99.90;;;;;;5035853;28;20038;-84
2022/12/03 10:05:50;;;;;;;0.90;0.90;;;3.20;99.90;;;;;;5017004;28;19935;-87
2022/12/03 10:08:21;;;;;;;0.63;0.63;;;2.70;99.90;;;;;;4994894;28;20056;-83
2022/12/03 10:10:50;;;;;;;0.70;0.70;;;2.90;99.90;;;;;;5009109;28;20470;-81
2022/12/03 10:13:30;;;;;;;0.80;0.80;;;2.70;99.90;;;;;;5027987;28;20049;-82
2022/12/03 10:15:58;;;;;;;0.60;0.60;;;2.70;99.90;;;;;;5025048;28;20589;-83
2022/12/03 10:18:27;;;;;;;0.60;0.60;;;2.70;99.90;;;;;;5008460;28;20037;-83
2022/12/03 10:20:53;;;;;;;0.70;0.70;;;3.30;99.90;;;;;;5020577;28;20043;-85
2022/12/03 10:23:23;;;;;;;;;;;2.70;99.90;;;;;;5026915;28;20068;-84
2022/12/03 10:25:57;;;;;;;0.50;0.50;;;2.70;99.90;;;;;;5020417;28;19975;-85
2022/12/03 10:28:27;;;;;;;0.57;0.57;;;2.70;99.90;;;;;;5022911;28;20072;-84
2022/12/03 10:30:56;;;;;;;1.48;1.48;;;2.90;99.90;;;;;;5009830;28;20056;-85
2022/12/03 10:33:30;;;;;;;0.70;0.70;;;2.90;99.90;;;;;;5008227;28;20048;-85
2022/12/03 10:35:58;;;;;;;1.00;1.00;;;2.80;99.90;;;;;;5005334;28;20086;-85
2022/12/03 10:38:23;;;;;;;0.68;0.68;;;2.90;99.90;;;;;;5020455;28;20237;-85
2022/12/03 10:40:52;;;;;;;0.70;0.70;;;2.80;99.90;;;;;;5009355;28;20041;-84
2022/12/03 10:43:17;;;;;;;0.60;0.60;;;2.70;99.90;;;;;;5028009;28;20049;-84
2022/12/03 10:45:45;;;;;;;0.70;0.70;;;2.80;99.90;;;;;;5026587;28;20045;-85
2022/12/03 10:48:11;;;;;;;0.57;0.57;;;2.80;99.90;;;;;;5023730;28;20107;-85
2022/12/03 10:50:44;;;;;;;0.60;0.60;;;2.80;99.90;;;;;;5004655;28;20042;-85
2022/12/03 10:53:10;;;;;;;0.60;0.60;;;4.50;99.90;;;;;;5030084;28;20046;-84
2022/12/03 10:55:42;;;;;;;0.68;0.68;;;2.90;99.90;;;;;;5030929;28;20111;-84
2022/12/03 10:58:23;;;;;;;0.63;0.63;;;2.90;99.90;;;;;;5030521;28;20045;-84
2022/12/03 11:00:51;;;;;;;0.63;0.63;;;2.90;99.90;;;;;;5014172;28;20049;-84
2022/12/03 11:03:33;;;;;;;0.50;0.50;;;3.80;99.90;;;;;;5032413;28;20099;-86
2022/12/03 11:06:00;;;;;;;0.70;0.70;;;2.90;99.90;;;;;;5019177;28;20474;-85
2022/12/03 11:08:36;;;;;;;1.63;1.17;;;2.90;99.90;;;;;;5014393;28;20033;-86
2022/12/03 11:11:07;;;;;;;0.63;0.63;;;2.90;99.90;;;;;;5015910;28;20113;-84
2022/12/03 11:13:33;;;;;;;0.60;0.60;;;3.60;99.90;;;;;;5017803;28;20041;-85
2022/12/03 11:16:00;;;;;;;0.55;0.55;;;2.80;99.90;;;;;;5020820;28;20045;-83
2022/12/03 11:18:35;;;;;;;0.68;0.68;;;2.80;99.90;;;;;;5015736;28;20041;-84
2022/12/03 11:21:01;;;;;;;0.75;0.75;;;2.80;99.90;;;;;;5012196;28;20030;-84
2022/12/03 11:23:45;;;;;;;0.65;0.65;;;2.80;99.90;;;;;;5000177;28;20053;-83
2022/12/03 11:26:27;;;;;;;2.80;2.58;;;2.80;99.90;;;;;;5031464;28;20052;-83
2022/12/03 11:28:54;;;;;;;1.45;1.35;;;2.80;99.90;;;;;;5017073;28;20053;-85
2022/12/03 11:31:36;;;;;;;0.70;0.70;;;2.70;99.90;;;;;;5017236;28;20545;-85
2022/12/03 11:34:17;;;;;;;0.93;0.93;;;2.80;99.90;;;;;;5015761;28;20076;-84
2022/12/03 11:37:08;;;;;;;1.27;1.27;;;2.80;99.90;;;;;;5018159;28;20042;-85
2022/12/03 11:39:49;;;;;;;0.57;0.57;;;2.70;99.90;;;;;;5016791;28;20506;-85
2022/12/03 11:45:09;;;;;;;0.80;0.80;;;2.80;99.90;;;;;;5019386;28;20123;-84
2022/12/03 11:47:56;;;;;;;1.63;1.58;;;2.70;99.90;;;;;;5030169;28;20160;-84
2022/12/03 11:50:28;;;;;;;0.70;0.70;;;2.70;99.90;;;;;;5025479;28;20045;-84
2022/12/03 11:53:01;;;;;;;0.70;0.70;;;2.70;99.90;;;;;;5021551;28;20037;-87
2022/12/03 11:55:39;;;;;;;0.50;0.50;;;2.90;99.90;;;;;;5012733;28;20396;-82
2022/12/03 11:58:20;;;;;;;0.52;0.52;;;2.80;99.90;;;;;;5023527;28;20045;-82
2022/12/03 12:00:48;;;;;;;0.60;0.60;;;2.80;99.90;;;;;;5013766;28;20037;-82
2022/12/03 12:03:32;;;;;;;0.60;0.60;;;2.70;99.90;;;;;;5014556;28;20052;-82
2022/12/03 12:06:27;;;;;;;0.60;0.60;;;2.80;99.90;;;;;;4991399;28;20096;-82
2022/12/03 12:08:58;;;;;;;0.70;0.70;;;2.80;99.90;;;;;;5028623;28;20099;-82
2022/12/03 12:11:28;;;;;;;0.60;0.60;;;2.80;99.90;;;;;;5016170;28;20038;-81
2022/12/03 12:13:59;;;;;;;0.65;0.65;;;2.80;99.90;;;;;;5032930;28;20044;-82
2022/12/03 12:16:48;;;;;;;0.60;0.60;;;2.80;99.90;;;;;;5015505;28;20478;-82
2022/12/03 12:19:27;;;;;;;0.68;0.68;;;2.80;99.90;;;;;;5028356;28;20041;-83
2022/12/03 12:21:54;;;;;;;0.63;0.63;;;2.80;99.90;;;;;;5009493;28;20498;-81
2022/12/03 12:24:50;;;;;;;0.70;0.70;;;2.70;99.90;;;;;;4996140;28;20045;-82
2022/12/03 12:27:44;;;;;;;0.50;0.50;;;2.70;99.90;;;;;;5005791;28;20049;-82
2022/12/03 12:30:20;;;;;;;0.50;0.50;;;2.80;99.90;;;;;;5013521;28;20067;-82
2022/12/03 12:33:09;;;;;;;0.60;0.60;;;2.80;99.90;;;;;;5013516;28;20434;-88
2022/12/03 12:37:53;;;;;;;0.60;0.60;;;2.70;99.90;;;;;;5106263;27;20187;-84
2022/12/03 12:40:25;;;;;;;1.15;1.15;;;2.80;99.90;;;;;;5103637;28;20090;-85
2022/12/03 12:42:58;;;;;;;0.70;0.70;;;2.80;99.90;;;;;;5121601;28;20039;-87
2022/12/03 12:45:27;;;;;;;0.60;0.60;;;2.80;99.90;;;;;;5119689;28;20050;-86
2022/12/03 12:48:11;;;;;;;0.70;0.70;;;3.10;99.90;;;;;;5127281;28;20096;-87
2022/12/03 12:50:38;;;;;;;0.60;0.60;;;2.80;99.90;;;;;;5127388;28;20046;-88
2022/12/03 12:53:11;;;;;;;0.60;0.60;;;2.80;99.90;;;;;;5118342;28;20054;-85
2022/12/03 12:55:39;;;;;;;1.40;1.27;;;2.70;99.90;;;;;;5116855;27;20086;-86
2022/12/03 12:58:11;;;;;;;0.63;0.63;;;2.70;99.90;;;;;;5115433;28;20039;-83
2022/12/03 13:00:37;;;;;;;0.95;0.95;;;2.70;99.90;;;;;;5122651;28;20047;-83
2022/12/03 13:03:04;;;;;;;0.65;0.65;;;2.60;99.90;;;;;;5112635;28;20027;-82
2022/12/03 13:05:45;;;;;;;0.60;0.60;;;4.00;99.90;;;;;;5111512;28;20406;-82
2022/12/03 13:08:19;;;;;;;0.60;0.60;;;2.60;99.90;;;;;;5120162;28;20075;-82
2022/12/03 13:10:45;;;;;;;0.93;0.93;;;2.50;99.90;;;;;;5114248;28;20079;-86
2022/12/03 13:13:34;;;;;;;0.57;0.57;;;3.40;99.90;;;;;;5112319;28;20120;-85
2022/12/03 13:16:03;;;;;;;0.85;0.85;;;2.50;99.90;;;;;;5097976;28;20693;-82
2022/12/03 13:18:40;;;;;;;0.90;0.90;;;2.90;99.90;;;;;;5117392;28;20088;-83
2022/12/03 13:21:44;;;;;;;0.88;0.88;;;2.40;99.90;;;;;;5122274;28;20491;-82
2022/12/03 13:24:40;;;;;;;0.68;0.68;;;2.50;99.90;;;;;;5082677;28;20405;-83
2022/12/03 13:27:21;;;;;;;0.60;0.60;;;2.40;99.90;;;;;;5044383;28;20135;-83
2022/12/03 13:30:02;;;;;;;1.85;1.70;;;2.30;99.90;;;;;;5077975;28;20511;-83
2022/12/03 13:32:32;;;;;;;0.70;0.70;;;2.30;99.90;;;;;;5080375;28;20048;-82
2022/12/03 13:35:25;;;;;;;0.65;0.65;;;2.30;99.90;;;;;;5090347;28;20062;-84
2022/12/03 13:37:51;;;;;;;2.00;1.05;;;2.30;99.90;;;;;;5104034;28;20102;-81
2022/12/03 13:40:33;;;;;;;1.42;1.33;;;2.30;99.90;;;;;;5077010;28;20492;-83